createdAt,value
2023-03-21T00:01:40.455Z,5.40
2023-03-21T00:04:08.176Z,5.30
2023-03-21T00:06:36.765Z,5.24
2023-03-21T00:09:04.763Z,5.18
2023-03-21T00:11:32.569Z,5.13
2023-03-21T00:14:02.444Z,5.21
2023-03-21T00:16:36.071Z,5.30
2023-03-21T00:19:06.880Z,5.32
2023-03-21T00:21:59.265Z,5.29
2023-03-21T00:24:26.160Z,5.32
2023-03-21T00:26:53.962Z,5.32
2023-03-21T00:29:21.674Z,5.26
2023-03-21T00:31:49.677Z,5.15
2023-03-21T00:34:26.730Z,5.13
2023-03-21T00:37:04.323Z,5.04
2023-03-21T00:39:32.191Z,4.92
2023-03-21T00:41:59.883Z,4.92
2023-03-21T00:44:27.545Z,5.01
2023-03-21T00:47:06.602Z,5.12
2023-03-21T00:49:38.487Z,5.11
2023-03-21T00:52:17.088Z,5.19
2023-03-21T00:54:50.176Z,5.20
2023-03-21T00:57:20.204Z,5.28
2023-03-21T00:59:48.004Z,5.31
2023-03-21T01:02:23.258Z,5.26
2023-03-21T01:04:52.309Z,5.27
2023-03-21T01:07:19.931Z,5.32
2023-03-21T01:09:47.636Z,5.38
2023-03-21T01:12:16.756Z,5.36
2023-03-21T01:14:44.378Z,5.48
2023-03-21T01:17:11.941Z,5.56
2023-03-21T01:19:51.161Z,5.60
2023-03-21T01:22:21.538Z,5.57
2023-03-21T01:24:57.019Z,5.61
2023-03-21T01:27:28.549Z,5.70
2023-03-21T01:29:56.383Z,5.72
2023-03-21T01:32:23.961Z,5.73
2023-03-21T01:34:51.578Z,5.72
2023-03-21T01:37:20.074Z,5.74
2023-03-21T01:39:49.029Z,5.76
2023-03-21T01:42:17.118Z,5.81
2023-03-21T01:44:56.651Z,5.82
2023-03-21T01:47:24.358Z,5.85
2023-03-21T01:49:53.977Z,5.87
2023-03-21T01:52:35.959Z,5.86
2023-03-21T01:55:08.453Z,5.81
2023-03-21T01:57:49.437Z,5.73
2023-03-21T02:00:21.666Z,5.65
2023-03-21T02:02:52.670Z,5.57
2023-03-21T02:05:23.893Z,5.66
2023-03-21T02:07:53.735Z,5.71
2023-03-21T02:10:23.367Z,5.72
2023-03-21T02:12:51.155Z,5.63
2023-03-21T02:15:18.927Z,5.59
2023-03-21T02:17:51.457Z,5.57
2023-03-21T02:20:40.823Z,5.58
2023-03-21T02:23:22.050Z,5.59
2023-03-21T02:26:24.788Z,5.52
2023-03-21T02:28:57.679Z,5.32
2023-03-21T02:31:32.298Z,5.19
2023-03-21T02:34:48.812Z,5.09
2023-03-21T02:37:28.973Z,5.12
2023-03-21T02:40:11.081Z,4.97
2023-03-21T02:42:51.541Z,5.03
2023-03-21T02:45:28.162Z,4.95
2023-03-21T02:47:58.940Z,4.92
2023-03-21T02:50:31.268Z,4.86
2023-03-21T02:53:01.424Z,4.84
2023-03-21T02:55:32.352Z,4.85
2023-03-21T02:58:11.706Z,4.88
2023-03-21T03:00:40.708Z,4.84
2023-03-21T03:03:11.456Z,4.97
2023-03-21T03:05:44.773Z,5.04
2023-03-21T03:08:26.572Z,5.05
2023-03-21T03:11:10.216Z,5.11
2023-03-21T03:13:51.744Z,5.11
2023-03-21T03:16:27.454Z,5.24
2023-03-21T03:18:56.805Z,5.27
2023-03-21T03:21:29.459Z,5.31
2023-03-21T03:23:59.394Z,5.34
2023-03-21T03:26:30.339Z,5.34
2023-03-21T03:29:01.838Z,5.38
2023-03-21T03:31:33.237Z,5.38
2023-03-21T03:34:02.802Z,5.36
2023-03-21T03:36:36.304Z,5.43
2023-03-21T03:39:09.273Z,5.38
2023-03-21T03:42:05.986Z,5.38
2023-03-21T03:44:30.649Z,5.32
2023-03-21T03:47:01.493Z,5.21
2023-03-21T03:49:32.807Z,5.29
2023-03-21T03:52:03.089Z,5.21
2023-03-21T03:54:34.314Z,5.26
2023-03-21T03:57:02.449Z,5.28
2023-03-21T03:59:30.195Z,5.22
2023-03-21T04:01:57.845Z,5.22
2023-03-21T04:04:28.978Z,5.17
2023-03-21T04:06:58.092Z,5.17
2023-03-21T04:09:37.472Z,5.24
2023-03-21T04:12:12.819Z,5.26
2023-03-21T04:14:45.601Z,5.26
2023-03-21T04:17:17.508Z,5.26
2023-03-21T04:19:46.280Z,5.23
2023-03-21T04:22:14.272Z,5.00
2023-03-21T04:24:42.692Z,5.11
2023-03-21T04:27:10.591Z,5.10
2023-03-21T04:29:39.882Z,5.09
2023-03-21T04:32:16.212Z,5.06
2023-03-21T04:34:50.223Z,5.05
2023-03-21T04:37:19.037Z,5.01
2023-03-21T04:39:47.663Z,4.97
2023-03-21T04:42:18.712Z,5.00
2023-03-21T04:44:48.298Z,5.03
2023-03-21T04:47:16.961Z,5.02
2023-03-21T04:49:48.061Z,4.93
2023-03-21T04:52:15.860Z,4.87
2023-03-21T04:54:43.872Z,4.79
2023-03-21T04:57:11.519Z,4.80
2023-03-21T04:59:39.191Z,4.84
2023-03-21T05:02:08.219Z,4.92
2023-03-21T05:04:35.892Z,4.92
2023-03-21T05:07:03.539Z,4.90
2023-03-21T05:09:31.325Z,4.93
2023-03-21T05:11:59.007Z,4.99
2023-03-21T05:14:28.372Z,4.92
2023-03-21T05:16:57.239Z,4.97
2023-03-21T05:19:34.745Z,4.91
2023-03-21T05:22:04.710Z,4.99
2023-03-21T05:24:33.010Z,5.03
2023-03-21T05:27:02.640Z,5.07
2023-03-21T05:29:31.505Z,5.14
2023-03-21T05:31:59.292Z,5.07
2023-03-21T05:34:28.895Z,5.10
2023-03-21T05:36:56.672Z,5.21
2023-03-21T05:39:24.317Z,5.23
2023-03-21T05:41:51.989Z,5.30
2023-03-21T05:44:19.626Z,5.34
2023-03-21T05:46:47.223Z,5.42
2023-03-21T05:49:14.881Z,5.45
2023-03-21T05:51:45.323Z,5.37
2023-03-21T05:54:16.623Z,5.21
2023-03-21T05:56:44.343Z,5.21
2023-03-21T05:59:12.042Z,5.16
2023-03-21T06:01:39.761Z,5.22
2023-03-21T06:04:07.664Z,5.19
2023-03-21T06:06:35.420Z,5.10
2023-03-21T06:09:04.860Z,5.09
2023-03-21T06:11:34.588Z,5.24
2023-03-21T06:14:02.262Z,5.36
2023-03-21T06:16:30.475Z,5.50
2023-03-21T06:18:58.169Z,5.51
2023-03-21T06:21:26.830Z,5.62
2023-03-21T06:23:54.620Z,5.60
2023-03-21T06:26:23.715Z,5.54
2023-03-21T06:28:51.376Z,5.57
2023-03-21T06:31:19.112Z,5.67
2023-03-21T06:33:46.798Z,5.72
2023-03-21T06:36:14.400Z,5.73
2023-03-21T06:38:42.066Z,5.73
2023-03-21T06:41:10.312Z,5.76
2023-03-21T06:43:39.320Z,5.81
2023-03-21T06:46:07.095Z,5.89
2023-03-21T06:48:34.885Z,6.01
2023-03-21T06:51:02.459Z,5.96
2023-03-21T06:53:30.200Z,6.01
2023-03-21T06:55:57.910Z,6.14
2023-03-21T06:58:25.625Z,6.22
2023-03-21T07:00:59.246Z,6.42
2023-03-21T07:03:27.161Z,6.55
2023-03-21T07:05:54.984Z,6.83
2023-03-21T07:08:22.646Z,7.14
2023-03-21T07:10:50.525Z,7.31
2023-03-21T07:13:18.188Z,7.58
2023-03-21T07:15:45.797Z,7.75
2023-03-21T07:18:14.866Z,7.82
2023-03-21T07:20:42.597Z,8.11
2023-03-21T07:23:10.264Z,8.07
2023-03-21T07:25:38.129Z,8.09
2023-03-21T07:28:09.296Z,8.03
2023-03-21T07:30:37.893Z,8.19
2023-03-21T07:33:07.143Z,8.36
2023-03-21T07:35:37.491Z,8.12
2023-03-21T07:38:05.405Z,8.04
2023-03-21T07:40:33.339Z,8.10
2023-03-21T07:45:33.438Z,8.34
2023-03-21T07:48:01.840Z,8.33
2023-03-21T07:50:29.506Z,8.23
2023-03-21T07:52:58.522Z,8.26
2023-03-21T07:55:26.212Z,8.54
2023-03-21T07:57:54.552Z,8.76
2023-03-21T08:00:23.829Z,8.81
2023-03-21T08:02:57.182Z,8.85
2023-03-21T08:05:28.055Z,8.95
2023-03-21T08:07:55.904Z,8.95
2023-03-21T08:10:25.196Z,9.35
2023-03-21T08:12:52.939Z,9.26
2023-03-21T08:15:20.920Z,9.21
2023-03-21T08:17:48.618Z,9.22
2023-03-21T08:20:18.508Z,9.26
2023-03-21T08:22:46.108Z,9.15
2023-03-21T08:25:15.320Z,9.22
2023-03-21T08:27:45.472Z,9.53
2023-03-21T08:30:14.921Z,9.78
2023-03-21T08:32:42.981Z,9.92
2023-03-21T08:35:12.138Z,9.98
2023-03-21T08:37:40.217Z,10.04
2023-03-21T08:40:11.321Z,10.14
2023-03-21T08:42:39.513Z,9.98
2023-03-21T08:45:09.979Z,10.08
2023-03-21T08:47:38.108Z,10.24
2023-03-21T08:50:07.918Z,10.28
2023-03-21T08:52:35.609Z,10.46
2023-03-21T08:55:03.672Z,10.51
2023-03-21T08:57:31.407Z,10.68
2023-03-21T08:59:59.038Z,10.67
2023-03-21T09:02:28.057Z,10.77
2023-03-21T09:04:59.140Z,10.86
2023-03-21T09:07:27.903Z,10.53
2023-03-21T09:10:14.823Z,10.80
2023-03-21T09:12:43.512Z,10.28
2023-03-21T09:15:13.113Z,10.66
2023-03-21T09:17:43.966Z,10.95
2023-03-21T09:20:20.872Z,11.27
2023-03-21T09:22:49.585Z,11.44
2023-03-21T09:25:18.018Z,11.24
2023-03-21T09:27:46.034Z,11.38
2023-03-21T09:30:16.354Z,11.26
2023-03-21T09:32:48.295Z,11.12
2023-03-21T09:35:16.267Z,11.29
2023-03-21T11:27:36.422Z,13.17
2023-03-21T11:30:06.290Z,13.23
2023-03-21T11:32:35.877Z,13.12
2023-03-21T11:35:07.329Z,13.05
2023-03-21T11:37:39.308Z,13.18
2023-03-21T11:40:16.645Z,13.20
2023-03-21T11:42:48.206Z,13.40
2023-03-21T11:45:18.493Z,13.45
2023-03-21T11:47:46.712Z,13.48
2023-03-21T11:50:20.441Z,13.44
2023-03-21T11:53:00.907Z,13.48
2023-03-21T11:55:46.289Z,13.31
2023-03-21T11:58:37.655Z,13.18
2023-03-21T12:01:12.238Z,13.41
2023-03-21T12:04:05.059Z,13.32
2023-03-21T12:06:36.642Z,13.51
2023-03-21T12:09:30.795Z,13.43
2023-03-21T12:12:24.492Z,13.44
2023-03-21T12:15:08.045Z,13.97
2023-03-21T12:17:42.429Z,13.94
2023-03-21T12:20:26.414Z,13.92
2023-03-21T12:23:02.422Z,13.99
2023-03-21T12:25:33.512Z,14.10
2023-03-21T12:28:09.549Z,13.78
2023-03-21T12:30:48.893Z,13.59
2023-03-21T12:33:26.170Z,13.58
2023-03-21T12:36:11.227Z,13.75
2023-03-21T12:38:42.101Z,13.97
2023-03-21T12:41:21.822Z,14.31
2023-03-21T12:43:54.007Z,14.27
2023-03-21T12:46:28.701Z,14.19
2023-03-21T12:48:59.497Z,14.08
2023-03-21T12:51:32.413Z,14.34
2023-03-21T12:54:08.561Z,14.59
2023-03-21T12:56:39.065Z,15.00
2023-03-21T12:59:15.249Z,14.72
2023-03-21T13:01:44.738Z,15.03
2023-03-21T13:04:42.535Z,14.80
2023-03-21T13:07:13.866Z,14.98
2023-03-21T13:09:42.666Z,15.00
2023-03-21T13:12:22.892Z,15.52
2023-03-21T13:14:59.635Z,15.55
2023-03-21T13:17:33.788Z,15.50
2023-03-21T13:20:08.671Z,15.63
2023-03-21T13:22:36.244Z,15.69
2023-03-21T13:25:06.704Z,15.82
2023-03-21T13:27:36.098Z,15.81
2023-03-21T13:30:06.850Z,15.94
2023-03-21T13:32:38.402Z,16.14
2023-03-21T13:35:16.232Z,16.01
2023-03-21T13:37:46.020Z,15.83
2023-03-21T13:40:22.928Z,15.90
2023-03-21T13:42:53.690Z,15.96
2023-03-21T13:45:29.152Z,16.32
2023-03-21T13:47:59.664Z,16.47
2023-03-21T13:50:51.101Z,16.31
2023-03-21T13:53:34.134Z,16.16
2023-03-21T13:56:09.275Z,16.32
2023-03-21T13:58:39.361Z,16.27
2023-03-21T14:01:16.153Z,16.19
2023-03-21T14:03:45.825Z,16.24
2023-03-21T14:06:13.821Z,16.22
2023-03-21T14:08:42.260Z,16.34
2023-03-21T14:11:14.593Z,16.12
2023-03-21T14:13:50.840Z,15.90
2023-03-21T14:16:19.850Z,15.59
2023-03-21T14:18:54.656Z,15.47
2023-03-21T14:21:25.057Z,15.27
2023-03-21T14:23:58.220Z,15.25
2023-03-21T14:26:26.950Z,15.07
2023-03-21T14:28:54.714Z,15.17
2023-03-21T14:31:22.481Z,15.19
2023-03-21T14:33:54.250Z,15.33
2023-03-21T14:36:25.714Z,15.47
2023-03-21T14:39:07.252Z,15.51
2023-03-21T14:41:45.998Z,15.56
2023-03-21T14:44:25.487Z,15.61
2023-03-21T14:47:04.818Z,15.51
2023-03-21T14:49:35.038Z,15.54
2023-03-21T14:52:06.717Z,15.41
2023-03-21T14:54:34.666Z,15.30
2023-03-21T14:57:03.673Z,15.28
2023-03-21T14:59:34.651Z,15.26
2023-03-21T15:02:04.519Z,15.06
2023-03-21T15:04:33.877Z,15.13
2023-03-21T15:07:05.015Z,15.24
2023-03-21T15:09:34.802Z,15.36
2023-03-21T15:12:03.719Z,15.42
2023-03-21T15:14:34.151Z,15.18
2023-03-21T15:17:04.194Z,15.15
2023-03-21T15:19:35.407Z,14.95
2023-03-21T15:22:18.736Z,14.93
2023-03-21T15:24:49.047Z,14.87
2023-03-21T15:27:18.882Z,14.68
2023-03-21T15:29:47.248Z,14.72
2023-03-21T15:32:17.506Z,14.57
2023-03-21T15:34:47.177Z,14.43
2023-03-21T15:37:18.288Z,14.43
2023-03-21T15:39:46.270Z,14.38
2023-03-21T15:42:32.032Z,14.28
2023-03-21T15:45:02.769Z,14.27
2023-03-21T15:47:41.811Z,14.24
2023-03-21T15:50:17.395Z,14.28
2023-03-21T15:52:45.258Z,14.26
2023-03-21T15:55:25.928Z,14.28
2023-03-21T15:57:55.305Z,14.07
2023-03-21T16:00:26.926Z,14.13
2023-03-21T16:02:59.316Z,14.05
2023-03-21T16:05:30.708Z,13.99
2023-03-21T16:08:06.904Z,13.92
2023-03-21T16:10:37.669Z,13.88
2023-03-21T16:13:06.564Z,13.80
2023-03-21T16:15:34.350Z,13.67
2023-03-21T16:18:04.386Z,13.66
2023-03-21T16:20:37.741Z,13.58
2023-03-21T16:23:05.618Z,13.47
2023-03-21T16:25:33.424Z,13.42
2023-03-21T16:28:01.061Z,13.35
2023-03-21T16:30:28.677Z,13.29
2023-03-21T16:32:57.443Z,13.13
2023-03-21T16:35:26.078Z,13.00
2023-03-21T16:37:55.028Z,12.90
2023-03-21T16:40:27.578Z,12.77
2023-03-21T16:42:55.486Z,12.71
2023-03-21T16:45:23.782Z,12.62
2023-03-21T16:47:51.751Z,12.57
2023-03-21T16:50:24.313Z,12.53
2023-03-21T16:52:52.223Z,12.44
2023-03-21T16:55:21.818Z,12.35
2023-03-21T16:57:52.142Z,12.22
2023-03-21T17:00:23.276Z,12.08
2023-03-21T17:02:53.402Z,12.07
2023-03-21T17:05:22.093Z,11.95
2023-03-21T17:07:49.722Z,11.87
2023-03-21T17:10:19.619Z,11.81
2023-03-21T17:12:48.654Z,11.71
2023-03-21T17:15:17.170Z,11.59
2023-03-21T17:17:45.713Z,11.54
2023-03-21T17:20:19.163Z,11.41
2023-03-21T17:22:46.870Z,11.38
2023-03-21T17:25:14.547Z,11.26
2023-03-21T17:27:42.575Z,11.20
2023-03-21T17:30:21.454Z,11.09
2023-03-21T17:32:49.637Z,11.03
2023-03-21T17:35:17.794Z,10.96
2023-03-21T17:37:50.085Z,10.96
2023-03-21T17:40:20.707Z,11.01
2023-03-21T17:42:48.400Z,10.94
2023-03-21T17:45:18.051Z,10.90
2023-03-21T17:47:46.190Z,10.85
2023-03-21T17:50:19.503Z,10.76
2023-03-21T17:52:49.050Z,10.82
2023-03-21T17:55:19.491Z,10.75
2023-03-21T17:57:47.514Z,10.73
2023-03-21T18:00:20.916Z,10.75
2023-03-21T18:02:48.555Z,10.70
2023-03-21T18:05:17.516Z,10.67
2023-03-21T18:08:08.948Z,10.72
2023-03-21T18:10:33.945Z,10.68
2023-03-21T18:13:02.193Z,10.68
2023-03-21T18:15:31.274Z,10.70
2023-03-21T18:17:59.409Z,10.71
2023-03-21T18:20:49.929Z,10.73
2023-03-21T18:23:18.598Z,10.64
2023-03-21T18:25:47.164Z,10.68
2023-03-21T18:28:19.161Z,10.66
2023-03-21T18:31:11.464Z,10.61
2023-03-21T18:33:40.180Z,10.59
2023-03-21T18:36:08.712Z,10.55
2023-03-21T18:38:37.172Z,10.47
2023-03-21T18:41:05.541Z,10.38
2023-03-21T18:46:22.303Z,10.29
2023-03-21T18:48:51.569Z,10.25
2023-03-21T18:51:19.686Z,10.19
2023-03-21T18:53:47.748Z,10.08
2023-03-21T18:56:57.633Z,10.06
2023-03-21T18:59:03.500Z,9.95
2023-03-21T19:01:32.613Z,9.86
2023-03-21T19:04:16.495Z,9.87
2023-03-21T19:06:50.167Z,9.87
2023-03-21T19:09:18.856Z,9.85
2023-03-21T19:11:47.397Z,9.83
2023-03-21T19:14:16.844Z,9.87
2023-03-21T19:17:26.964Z,9.86
2023-03-21T19:19:34.462Z,9.84
2023-03-21T19:22:02.260Z,9.88
2023-03-21T19:24:29.850Z,9.93
2023-03-21T19:26:57.612Z,9.91
2023-03-21T19:29:25.793Z,9.92
2023-03-21T19:31:54.883Z,9.94
2023-03-21T19:34:22.542Z,9.91
2023-03-21T19:36:51.819Z,9.92
2023-03-21T19:39:22.119Z,9.92
2023-03-21T19:41:50.248Z,9.95
2023-03-21T19:44:19.111Z,9.93
2023-03-21T19:46:48.340Z,9.93
2023-03-21T19:49:22.113Z,9.89
2023-03-21T19:51:50.071Z,9.87
2023-03-21T19:54:18.477Z,9.85
2023-03-21T19:56:47.440Z,9.84
2023-03-21T19:59:15.912Z,9.79
2023-03-21T20:01:43.480Z,9.81
2023-03-21T20:04:11.292Z,9.75
2023-03-21T20:06:40.427Z,9.72
2023-03-21T20:11:57.755Z,9.68
2023-03-21T20:14:25.803Z,9.68
2023-03-21T20:16:55.374Z,9.59
2023-03-21T20:19:23.035Z,9.53
2023-03-21T20:21:58.731Z,9.49
2023-03-21T20:24:28.190Z,9.40
2023-03-21T20:26:56.151Z,9.27
2023-03-21T20:32:11.509Z,9.10
2023-03-21T20:34:39.288Z,9.07
2023-03-21T20:37:08.403Z,8.98
2023-03-21T20:39:36.232Z,8.93
2023-03-21T20:42:05.431Z,8.89
2023-03-21T20:44:58.459Z,8.83
2023-03-21T20:47:20.932Z,8.77
2023-03-21T20:49:49.481Z,8.82
2023-03-21T20:55:09.021Z,8.70
2023-03-21T20:57:38.769Z,8.68
2023-03-21T21:00:13.707Z,8.66
2023-03-21T21:02:42.139Z,8.65
2023-03-21T21:05:25.323Z,8.64
2023-03-21T21:07:57.349Z,8.61
2023-03-21T21:10:36.460Z,8.59
2023-03-21T21:13:12.624Z,8.56
2023-03-21T21:15:40.205Z,8.54
2023-03-21T21:18:08.469Z,8.57
2023-03-21T21:20:37.201Z,8.62
2023-03-21T21:23:06.687Z,8.61
2023-03-21T21:25:35.549Z,8.56
2023-03-21T21:28:03.650Z,8.56
2023-03-21T21:30:32.477Z,8.53
2023-03-21T21:33:00.757Z,8.55
2023-03-21T21:35:28.489Z,8.57
2023-03-21T21:37:56.145Z,8.59
2023-03-21T21:40:25.608Z,8.58
2023-03-21T21:42:53.692Z,8.60
2023-03-21T21:45:21.547Z,8.57
2023-03-21T21:47:49.397Z,8.53
2023-03-21T21:50:17.146Z,8.52
2023-03-21T21:52:52.530Z,8.52
2023-03-21T21:55:20.407Z,8.48
2023-03-21T21:57:51.006Z,8.54
2023-03-21T22:00:20.276Z,8.51
2023-03-21T22:02:48.051Z,8.44
2023-03-21T22:05:16.280Z,8.43
2023-03-21T22:07:44.324Z,8.49
2023-03-21T22:10:12.302Z,8.55
2023-03-21T22:12:39.847Z,8.58
2023-03-21T22:15:10.738Z,8.57
2023-03-21T22:17:38.730Z,8.56
2023-03-21T22:20:08.763Z,8.57
2023-03-21T22:22:37.168Z,8.56
2023-03-21T22:25:06.238Z,8.57
2023-03-21T22:27:34.399Z,8.60
2023-03-21T22:30:04.681Z,8.65
2023-03-21T22:32:33.644Z,8.72
2023-03-21T22:35:02.453Z,8.76
2023-03-21T22:37:30.141Z,8.77
2023-03-21T22:39:57.786Z,8.78
2023-03-21T22:42:25.382Z,8.78
2023-03-21T22:44:52.952Z,8.78
2023-03-21T22:47:20.866Z,8.77
2023-03-21T22:49:50.030Z,8.78
2023-03-21T22:52:17.686Z,8.74
2023-03-21T22:54:45.893Z,8.72
2023-03-21T22:57:14.046Z,8.64
2023-03-21T22:59:41.832Z,8.54
2023-03-21T23:02:09.993Z,8.43
2023-03-21T23:04:37.825Z,8.40
2023-03-21T23:07:06.901Z,8.32
2023-03-21T23:09:34.612Z,8.21
2023-03-21T23:12:02.155Z,8.13
2023-03-21T23:14:29.816Z,8.09
2023-03-21T23:17:02.559Z,8.07
2023-03-21T23:19:31.278Z,8.03
2023-03-21T23:21:59.118Z,8.04
2023-03-21T23:24:28.128Z,8.06
2023-03-21T23:26:55.823Z,8.09
2023-03-21T23:29:23.375Z,8.11
2023-03-21T23:31:51.082Z,8.10
2023-03-21T23:34:18.772Z,8.10
2023-03-21T23:36:46.296Z,8.17
2023-03-21T23:39:13.937Z,8.18
2023-03-21T23:41:45.142Z,8.20
2023-03-21T23:44:12.689Z,8.18
2023-03-21T23:46:40.236Z,8.19
2023-03-21T23:49:07.746Z,8.13
2023-03-21T23:51:35.301Z,8.04
2023-03-21T23:54:02.902Z,8.04
2023-03-21T23:56:30.478Z,8.03
2023-03-21T23:59:00.047Z,8.01
